createdAt,value
2022-09-09T00:02:30.960Z,17.98
2022-09-09T00:05:11.133Z,18.02
2022-09-09T00:07:49.238Z,17.87
2022-09-09T00:10:24.761Z,17.95
2022-09-09T00:13:10.393Z,17.86
2022-09-09T00:15:52.656Z,17.87
2022-09-09T00:18:30.421Z,17.83
2022-09-09T00:21:08.630Z,17.81
2022-09-09T00:23:43.166Z,17.78
2022-09-09T00:26:19.050Z,17.77
2022-09-09T00:28:57.553Z,17.69
2022-09-09T00:31:32.162Z,17.76
2022-09-09T00:34:13.966Z,17.71
2022-09-09T00:36:45.685Z,17.71
2022-09-09T00:39:33.545Z,17.72
2022-09-09T00:42:17.119Z,17.72
2022-09-09T00:45:00.003Z,17.73
2022-09-09T00:47:51.977Z,17.64
2022-09-09T00:50:36.786Z,17.74
2022-09-09T00:53:25.828Z,17.69
2022-09-09T00:56:06.522Z,17.71
2022-09-09T00:58:35.849Z,17.63
2022-09-09T01:01:08.835Z,17.69
2022-09-09T01:03:46.431Z,17.72
2022-09-09T01:06:22.199Z,17.71
2022-09-09T01:09:20.351Z,17.69
2022-09-09T01:12:01.857Z,17.62
2022-09-09T01:14:45.442Z,17.60
2022-09-09T01:17:21.790Z,17.68
2022-09-09T01:20:13.974Z,17.67
2022-09-09T01:23:06.084Z,17.65
2022-09-09T01:26:28.682Z,17.65
2022-09-09T01:29:01.141Z,17.67
2022-09-09T01:31:42.087Z,17.63
2022-09-09T01:34:14.587Z,17.67
2022-09-09T01:36:52.046Z,17.58
2022-09-09T01:39:22.430Z,17.67
2022-09-09T01:42:01.729Z,17.62
2022-09-09T01:44:32.140Z,17.62
2022-09-09T01:47:01.631Z,17.62
2022-09-09T01:49:31.015Z,17.60
2022-09-09T01:52:01.279Z,17.54
2022-09-09T01:54:36.269Z,17.60
2022-09-09T01:57:20.933Z,17.58
2022-09-09T02:00:07.466Z,17.56
2022-09-09T02:02:55.775Z,17.57
2022-09-09T02:05:38.958Z,17.46
2022-09-09T02:08:23.036Z,17.48
2022-09-09T02:11:03.388Z,17.49
2022-09-09T02:13:46.488Z,17.55
2022-09-09T02:16:26.095Z,17.54
2022-09-09T02:19:03.424Z,17.41
2022-09-09T02:21:46.373Z,17.44
2022-09-09T02:24:18.154Z,17.45
2022-09-09T02:26:56.814Z,17.56
2022-09-09T02:29:33.989Z,17.54
2022-09-09T02:32:09.722Z,17.54
2022-09-09T02:34:50.207Z,17.49
2022-09-09T02:37:22.668Z,17.46
2022-09-09T02:39:55.699Z,17.64
2022-09-09T02:42:26.140Z,17.59
2022-09-09T02:44:58.919Z,17.55
2022-09-09T02:47:37.401Z,17.56
2022-09-09T02:50:17.938Z,17.55
2022-09-09T02:53:08.659Z,17.59
2022-09-09T02:55:49.412Z,17.62
2022-09-09T02:58:21.738Z,17.62
2022-09-09T03:01:06.344Z,17.59
2022-09-09T03:03:35.892Z,17.59
2022-09-09T03:06:11.053Z,17.59
2022-09-09T03:08:41.661Z,17.30
2022-09-09T03:11:15.730Z,17.47
2022-09-09T03:13:45.621Z,17.62
2022-09-09T03:16:16.921Z,17.54
2022-09-09T03:18:50.187Z,17.52
2022-09-09T03:21:19.575Z,17.51
2022-09-09T03:23:49.308Z,17.54
2022-09-09T03:26:18.881Z,17.54
2022-09-09T03:28:50.895Z,17.52
2022-09-09T03:31:22.980Z,17.49
2022-09-09T03:33:53.409Z,17.37
2022-09-09T03:36:24.056Z,17.52
2022-09-09T03:38:53.401Z,17.44
2022-09-09T03:41:25.011Z,17.50
2022-09-09T03:43:55.813Z,17.40
2022-09-09T03:46:28.581Z,17.37
2022-09-09T03:48:58.290Z,17.51
2022-09-09T03:51:27.515Z,17.51
2022-09-09T03:53:57.929Z,17.42
2022-09-09T03:56:28.449Z,17.52
2022-09-09T03:58:58.613Z,17.47
2022-09-09T04:01:30.509Z,17.44
2022-09-09T04:04:00.219Z,17.49
2022-09-09T04:06:29.810Z,17.43
2022-09-09T04:08:59.348Z,17.41
2022-09-09T04:11:29.352Z,17.38
2022-09-09T04:14:01.226Z,17.33
2022-09-09T04:16:33.907Z,17.26
2022-09-09T04:19:05.275Z,17.30
2022-09-09T04:21:34.670Z,17.27
2022-09-09T04:24:05.260Z,17.31
2022-09-09T04:26:34.537Z,17.28
2022-09-09T04:29:04.213Z,17.36
2022-09-09T04:31:35.818Z,17.36
2022-09-09T04:34:06.423Z,17.39
2022-09-09T04:36:36.731Z,17.36
2022-09-09T04:39:08.166Z,17.39
2022-09-09T04:41:37.387Z,17.29
2022-09-09T04:44:06.995Z,17.37
2022-09-09T04:46:37.741Z,17.34
2022-09-09T04:49:08.066Z,17.31
2022-09-09T04:51:38.379Z,17.24
2022-09-09T04:54:08.349Z,17.29
2022-09-09T04:56:39.976Z,17.27
2022-09-09T04:59:09.278Z,17.23
2022-09-09T05:01:46.839Z,17.16
2022-09-09T05:04:16.414Z,17.06
2022-09-09T05:06:46.944Z,17.10
2022-09-09T05:09:16.614Z,17.15
2022-09-09T05:11:47.360Z,17.16
2022-09-09T05:14:24.240Z,17.12
2022-09-09T05:16:54.814Z,17.14
2022-09-09T05:19:25.604Z,17.10
2022-09-09T05:21:56.146Z,17.15
2022-09-09T05:24:34.311Z,16.94
2022-09-09T05:27:06.463Z,16.99
2022-09-09T05:29:36.178Z,17.10
2022-09-09T05:32:13.551Z,17.13
2022-09-09T05:34:45.988Z,17.12
2022-09-09T05:37:15.248Z,17.15
2022-09-09T05:39:45.428Z,17.17
2022-09-09T05:42:15.349Z,17.16
2022-09-09T05:44:45.981Z,17.03
2022-09-09T05:47:17.150Z,17.18
2022-09-09T05:49:46.664Z,17.12
2022-09-09T05:52:16.076Z,17.16
2022-09-09T05:54:45.391Z,17.05
2022-09-09T05:57:14.566Z,17.15
2022-09-09T05:59:43.828Z,17.01
2022-09-09T06:02:13.712Z,17.11
2022-09-09T06:04:44.432Z,17.11
2022-09-09T06:07:15.850Z,17.13
2022-09-09T06:09:45.170Z,17.09
2022-09-09T06:12:15.430Z,17.12
2022-09-09T06:14:46.543Z,17.08
2022-09-09T06:17:19.699Z,17.13
2022-09-09T06:19:53.356Z,17.16
2022-09-09T06:22:25.144Z,17.04
2022-09-09T06:24:54.705Z,17.18
2022-09-09T06:27:23.863Z,17.05
2022-09-09T06:29:53.470Z,17.16
2022-09-09T06:32:22.762Z,17.18
2022-09-09T06:34:54.450Z,17.21
2022-09-09T06:37:25.200Z,17.20
2022-09-09T06:39:55.850Z,17.19
2022-09-09T06:42:25.651Z,17.19
2022-09-09T06:45:08.278Z,17.27
2022-09-09T06:47:47.815Z,17.31
2022-09-09T06:50:19.317Z,17.25
2022-09-09T06:52:49.804Z,17.21
2022-09-09T06:55:20.982Z,17.30
2022-09-09T06:57:51.359Z,17.33
2022-09-09T07:00:27.192Z,17.38
2022-09-09T07:02:56.644Z,17.34
2022-09-09T07:05:27.768Z,17.33
2022-09-09T07:07:57.483Z,17.36
2022-09-09T07:10:27.539Z,17.20
2022-09-09T07:12:58.154Z,17.43
2022-09-09T07:15:28.453Z,17.39
2022-09-09T07:17:57.850Z,17.49
2022-09-09T07:20:32.285Z,17.54
2022-09-09T07:23:04.645Z,17.56
2022-09-09T07:25:33.994Z,17.55
2022-09-09T07:28:04.461Z,17.64
2022-09-09T07:30:38.349Z,17.67
2022-09-09T07:33:10.659Z,17.71
2022-09-09T07:35:41.780Z,17.65
2022-09-09T07:38:12.327Z,17.70
2022-09-09T07:40:41.553Z,17.68
2022-09-09T07:43:13.335Z,17.74
2022-09-09T07:45:46.115Z,17.73
2022-09-09T07:48:15.521Z,17.80
2022-09-09T07:50:48.627Z,17.81
2022-09-09T07:53:18.584Z,17.99
2022-09-09T07:55:48.337Z,18.04
2022-09-09T07:58:17.491Z,18.14
2022-09-09T08:00:46.787Z,18.17
2022-09-09T08:03:16.188Z,18.23
2022-09-09T08:05:45.338Z,18.30
2022-09-09T08:08:17.423Z,18.38
2022-09-09T08:10:48.003Z,18.39
2022-09-09T08:13:19.206Z,18.59
2022-09-09T08:15:52.257Z,18.87
2022-09-09T08:18:23.172Z,19.19
2022-09-09T08:20:52.772Z,19.24
2022-09-09T08:23:23.565Z,19.26
2022-09-09T08:25:52.728Z,19.20
2022-09-09T08:28:22.285Z,19.16
2022-09-09T08:30:54.381Z,19.16
2022-09-09T08:33:24.021Z,19.11
2022-09-09T08:35:54.281Z,18.97
2022-09-09T08:38:25.744Z,19.10
2022-09-09T08:41:07.227Z,19.09
2022-09-09T08:43:36.906Z,19.18
2022-09-09T08:46:13.876Z,19.05
2022-09-09T08:48:59.167Z,19.01
2022-09-09T08:51:31.644Z,19.17
2022-09-09T08:54:05.616Z,19.29
2022-09-09T08:56:36.199Z,19.45
2022-09-09T08:59:07.344Z,19.50
2022-09-09T09:01:56.077Z,19.58
2022-09-09T09:05:07.612Z,19.71
2022-09-09T09:07:56.870Z,19.67
2022-09-09T09:10:50.090Z,19.60
2022-09-09T09:13:29.202Z,19.65
2022-09-09T09:16:09.103Z,19.65
2022-09-09T09:18:38.918Z,19.71
2022-09-09T09:21:17.065Z,19.73
2022-09-09T09:23:55.125Z,19.62
2022-09-09T09:26:32.140Z,19.73
2022-09-09T09:29:04.113Z,19.84
2022-09-09T09:31:33.521Z,19.92
2022-09-09T09:34:03.551Z,20.00
2022-09-09T09:36:42.487Z,20.07
2022-09-09T09:42:21.666Z,20.17
2022-09-09T09:44:53.469Z,20.13
2022-09-09T09:47:25.555Z,20.16
2022-09-09T09:50:03.683Z,20.17
2022-09-09T09:52:38.560Z,20.21
2022-09-09T09:55:16.781Z,20.27
2022-09-09T09:57:50.197Z,20.32
2022-09-09T10:00:23.029Z,20.36
2022-09-09T10:03:03.347Z,20.50
2022-09-09T10:05:38.952Z,20.60
2022-09-09T10:08:17.628Z,20.71
2022-09-09T10:11:15.867Z,20.76
2022-09-09T10:13:55.687Z,21.00
2022-09-09T10:16:45.359Z,21.00
2022-09-09T10:19:19.265Z,21.18
2022-09-09T10:22:18.318Z,21.20
2022-09-09T10:25:36.381Z,21.42
2022-09-09T10:28:59.944Z,21.52
2022-09-09T10:31:39.617Z,21.49
2022-09-09T10:34:29.771Z,21.65
2022-09-09T10:37:01.661Z,21.78
2022-09-09T10:39:43.176Z,21.95
2022-09-09T10:42:16.431Z,22.09
2022-09-09T10:45:04.217Z,22.19
2022-09-09T10:48:06.999Z,22.32
2022-09-09T10:51:01.112Z,22.31
2022-09-09T10:53:47.597Z,22.11
2022-09-09T10:56:20.933Z,21.95
2022-09-09T10:58:54.627Z,22.02
2022-09-09T11:01:30.400Z,21.78
2022-09-09T11:04:05.863Z,21.67
2022-09-09T11:06:42.122Z,21.56
2022-09-09T11:09:18.148Z,21.56
2022-09-09T11:11:55.405Z,21.48
2022-09-09T11:14:37.403Z,21.45
2022-09-09T11:17:15.899Z,21.41
2022-09-09T11:19:46.503Z,21.68
2022-09-09T11:22:30.494Z,21.66
2022-09-09T11:25:05.895Z,21.77
2022-09-09T11:27:45.476Z,21.85
2022-09-09T11:30:44.559Z,21.88
2022-09-09T11:34:00.523Z,21.85
2022-09-09T11:37:08.336Z,21.91
2022-09-09T11:40:16.291Z,21.86
2022-09-09T11:42:45.818Z,21.82
2022-09-09T11:45:28.342Z,21.76
2022-09-09T11:48:00.060Z,21.59
2022-09-09T11:50:39.028Z,21.50
2022-09-09T11:53:25.907Z,21.64
2022-09-09T11:56:14.078Z,22.03
2022-09-09T11:58:58.786Z,22.48
2022-09-09T12:01:38.253Z,22.81
2022-09-09T12:04:35.028Z,23.00
2022-09-09T12:07:24.893Z,22.98
2022-09-09T12:09:59.709Z,23.18
2022-09-09T12:12:33.957Z,23.12
2022-09-09T12:15:25.644Z,23.17
2022-09-09T12:18:02.126Z,23.70
2022-09-09T12:20:37.279Z,24.05
2022-09-09T12:23:32.110Z,24.69
2022-09-09T12:26:21.896Z,24.92
2022-09-09T12:29:05.692Z,24.99
2022-09-09T12:31:45.754Z,25.04
2022-09-09T12:34:22.783Z,24.72
2022-09-09T12:36:59.534Z,24.68
2022-09-09T12:39:38.651Z,24.20
2022-09-09T12:42:18.640Z,24.08
2022-09-09T12:44:56.511Z,23.87
2022-09-09T12:47:34.758Z,23.73
2022-09-09T12:50:04.282Z,23.60
2022-09-09T12:52:38.381Z,23.40
2022-09-09T12:55:10.246Z,23.29
2022-09-09T12:57:41.689Z,23.29
2022-09-09T13:00:18.549Z,23.62
2022-09-09T13:02:54.147Z,23.91
2022-09-09T13:05:29.195Z,24.26
2022-09-09T13:08:04.657Z,24.44
2022-09-09T13:11:01.782Z,24.28
2022-09-09T13:13:42.182Z,24.35
2022-09-09T13:16:24.044Z,23.96
2022-09-09T13:18:54.122Z,23.65
2022-09-09T13:21:35.648Z,23.45
2022-09-09T13:24:08.652Z,23.34
2022-09-09T13:26:39.625Z,23.28
2022-09-09T13:29:20.229Z,23.32
2022-09-09T13:31:53.636Z,23.38
2022-09-09T13:34:32.716Z,23.60
2022-09-09T13:37:06.316Z,23.89
2022-09-09T13:39:38.081Z,24.04
2022-09-09T13:42:26.442Z,23.89
2022-09-09T13:44:56.934Z,23.68
2022-09-09T13:47:33.824Z,23.25
2022-09-09T13:50:22.147Z,22.98
2022-09-09T13:52:52.570Z,22.97
2022-09-09T13:55:24.563Z,22.83
2022-09-09T13:57:57.253Z,22.77
2022-09-09T14:00:27.457Z,22.85
2022-09-09T14:02:57.121Z,22.88
2022-09-09T14:05:26.453Z,22.91
2022-09-09T14:07:55.936Z,23.02
2022-09-09T14:10:25.093Z,23.00
2022-09-09T14:12:55.760Z,23.07
2022-09-09T14:15:25.224Z,23.08
2022-09-09T14:17:54.420Z,23.05
2022-09-09T14:20:23.646Z,22.95
2022-09-09T14:22:54.497Z,22.81
2022-09-09T14:25:23.688Z,22.72
2022-09-09T14:27:54.234Z,22.60
2022-09-09T14:30:23.364Z,22.48
2022-09-09T14:32:52.667Z,22.42
2022-09-09T14:35:23.344Z,22.41
2022-09-09T14:37:52.849Z,22.42
2022-09-09T14:40:22.571Z,22.40
2022-09-09T14:42:52.374Z,22.39
2022-09-09T14:45:25.941Z,22.53
2022-09-09T14:47:55.584Z,22.96
2022-09-09T14:50:26.263Z,23.56
2022-09-09T14:52:55.443Z,24.47
2022-09-09T14:55:24.690Z,24.97
2022-09-09T14:57:53.896Z,25.11
2022-09-09T15:02:55.889Z,24.90
2022-09-09T15:05:25.458Z,24.60
2022-09-09T15:07:54.560Z,24.43
2022-09-09T15:10:23.702Z,24.21
2022-09-09T15:12:52.854Z,24.07
2022-09-09T15:15:23.391Z,23.95
2022-09-09T15:17:52.532Z,23.91
2022-09-09T15:20:21.646Z,23.91
2022-09-09T15:22:51.948Z,23.81
2022-09-09T15:25:22.937Z,23.78
2022-09-09T15:27:52.154Z,23.79
2022-09-09T15:30:21.410Z,23.79
2022-09-09T15:32:54.085Z,23.79
2022-09-09T15:35:23.317Z,23.83
2022-09-09T15:37:52.467Z,23.82
2022-09-09T15:40:21.729Z,23.75
2022-09-09T15:42:50.943Z,23.69
2022-09-09T15:45:21.678Z,23.55
2022-09-09T15:47:53.031Z,23.43
2022-09-09T15:50:22.278Z,23.38
2022-09-09T15:52:53.369Z,23.24
2022-09-09T15:55:23.185Z,23.15
2022-09-09T15:57:53.269Z,23.05
2022-09-09T16:00:23.763Z,22.91
2022-09-09T16:02:57.566Z,22.94
2022-09-09T16:05:26.921Z,22.83
2022-09-09T16:07:59.435Z,22.76
2022-09-09T16:10:30.313Z,22.80
2022-09-09T16:13:02.944Z,22.81
2022-09-09T16:15:32.324Z,22.80
2022-09-09T16:18:05.392Z,22.77
2022-09-09T16:20:34.544Z,22.75
2022-09-09T16:23:04.027Z,22.73
2022-09-09T16:25:33.436Z,22.64
2022-09-09T16:28:02.911Z,22.74
2022-09-09T16:30:35.204Z,22.66
2022-09-09T16:33:09.041Z,22.47
2022-09-09T16:35:41.493Z,22.45
2022-09-09T16:38:11.127Z,22.44
2022-09-09T16:40:43.029Z,22.43
2022-09-09T16:43:16.514Z,22.34
2022-09-09T16:45:46.490Z,22.34
2022-09-09T16:48:18.825Z,22.34
2022-09-09T16:50:48.051Z,22.32
2022-09-09T16:53:19.872Z,22.19
2022-09-09T16:55:49.319Z,22.19
2022-09-09T16:58:19.014Z,22.15
2022-09-09T17:00:50.076Z,22.05
2022-09-09T17:03:20.889Z,22.02
2022-09-09T17:05:50.069Z,21.91
2022-09-09T17:08:19.338Z,21.94
2022-09-09T17:10:49.311Z,21.94
2022-09-09T17:13:20.772Z,21.74
2022-09-09T17:15:50.170Z,21.91
2022-09-09T17:18:21.748Z,21.89
2022-09-09T17:20:50.969Z,21.88
2022-09-09T17:23:20.661Z,21.86
2022-09-09T17:25:59.161Z,21.73
2022-09-09T17:28:32.167Z,21.72
2022-09-09T17:31:04.012Z,21.66
2022-09-09T17:33:35.679Z,21.76
2022-09-09T17:36:12.283Z,21.61
2022-09-09T17:38:43.593Z,21.60
2022-09-09T17:41:16.815Z,21.54
2022-09-09T17:43:46.912Z,21.47
2022-09-09T17:46:20.797Z,21.47
2022-09-09T17:48:54.014Z,21.43
2022-09-09T17:51:27.160Z,21.43
2022-09-09T17:53:59.435Z,21.42
2022-09-09T17:56:31.664Z,21.40
2022-09-09T17:59:03.049Z,21.23
2022-09-09T18:01:34.479Z,21.21
2022-09-09T18:04:07.832Z,21.19
2022-09-09T18:06:39.450Z,21.15
2022-09-09T18:09:13.314Z,21.04
2022-09-09T18:11:45.487Z,20.90
2022-09-09T18:14:18.224Z,20.88
2022-09-09T18:16:48.549Z,20.82
2022-09-09T18:19:22.936Z,20.73
2022-09-09T18:21:52.571Z,20.56
2022-09-09T18:24:23.432Z,20.56
2022-09-09T18:26:53.642Z,20.52
2022-09-09T18:29:25.546Z,20.42
2022-09-09T18:31:56.594Z,20.38
2022-09-09T18:34:28.844Z,20.45
2022-09-09T18:36:59.042Z,20.38
2022-09-09T18:39:30.849Z,20.28
2022-09-09T18:42:02.471Z,20.35
2022-09-09T18:44:33.736Z,20.26
2022-09-09T18:47:04.121Z,20.22
2022-09-09T18:49:34.684Z,20.29
2022-09-09T18:52:04.868Z,20.28
2022-09-09T18:54:34.825Z,20.27
2022-09-09T18:57:04.005Z,20.20
2022-09-09T18:59:33.555Z,20.10
2022-09-09T19:02:02.783Z,20.13
2022-09-09T19:04:34.154Z,20.01
2022-09-09T19:07:03.276Z,20.05
2022-09-09T19:09:34.357Z,20.10
2022-09-09T19:12:05.898Z,20.10
2022-09-09T19:14:35.201Z,20.10
2022-09-09T19:17:05.007Z,20.11
2022-09-09T19:19:35.918Z,20.07
2022-09-09T19:22:07.005Z,20.03
2022-09-09T19:24:37.621Z,20.09
2022-09-09T19:27:08.813Z,20.02
2022-09-09T19:29:42.852Z,19.88
2022-09-09T19:35:03.308Z,20.11
2022-09-09T19:37:32.814Z,20.01
2022-09-09T19:40:02.428Z,20.02
2022-09-09T19:42:32.280Z,20.08
2022-09-09T19:45:01.721Z,19.96
2022-09-09T19:47:30.974Z,20.05
2022-09-09T19:50:00.240Z,19.98
2022-09-09T19:52:31.167Z,20.02
2022-09-09T19:55:01.345Z,20.03
2022-09-09T19:57:31.114Z,20.10
2022-09-09T20:00:00.982Z,20.11
2022-09-09T20:02:31.105Z,20.12
2022-09-09T20:05:00.289Z,19.94
2022-09-09T20:07:30.885Z,20.10
2022-09-09T20:10:00.442Z,20.06
2022-09-09T20:12:29.833Z,20.12
2022-09-09T20:14:58.978Z,20.16
2022-09-09T20:17:28.147Z,20.13
2022-09-09T20:19:57.676Z,20.11
2022-09-09T20:22:26.881Z,20.09
2022-09-09T20:24:57.473Z,20.07
2022-09-09T20:27:27.716Z,20.06
2022-09-09T20:29:56.861Z,20.07
2022-09-09T20:32:26.205Z,19.70
2022-09-09T20:34:55.673Z,20.04
2022-09-09T20:37:25.072Z,19.97
2022-09-09T20:39:55.910Z,20.01
2022-09-09T20:42:26.531Z,19.89
2022-09-09T20:44:55.685Z,19.92
2022-09-09T20:47:24.986Z,19.93
2022-09-09T20:49:54.223Z,19.93
2022-09-09T20:52:23.410Z,19.92
2022-09-09T20:54:54.311Z,19.89
2022-09-09T20:57:24.597Z,19.87
2022-09-09T20:59:55.201Z,19.86
2022-09-09T21:02:24.459Z,19.84
2022-09-09T21:04:54.073Z,19.85
2022-09-09T21:07:24.094Z,19.81
2022-09-09T21:09:57.836Z,19.87
2022-09-09T21:12:27.945Z,19.83
2022-09-09T21:14:58.879Z,19.81
2022-09-09T21:17:29.016Z,19.78
2022-09-09T21:19:58.256Z,19.69
2022-09-09T21:22:27.428Z,19.69
2022-09-09T21:24:56.796Z,19.65
2022-09-09T21:27:26.170Z,19.57
2022-09-09T21:29:55.289Z,19.53
2022-09-09T21:32:25.938Z,19.48
2022-09-09T21:34:55.232Z,19.50
2022-09-09T21:37:24.441Z,19.46
2022-09-09T21:39:57.025Z,19.46
2022-09-09T21:42:28.569Z,19.43
2022-09-09T21:44:57.848Z,19.36
2022-09-09T21:47:28.458Z,19.30
2022-09-09T21:49:57.550Z,19.23
2022-09-09T21:52:26.804Z,19.16
2022-09-09T21:54:56.004Z,19.14
2022-09-09T21:57:25.742Z,19.06
2022-09-09T21:59:55.037Z,19.02
2022-09-09T22:02:24.746Z,19.07
2022-09-09T22:04:55.409Z,18.68
2022-09-09T22:07:24.726Z,18.98
2022-09-09T22:09:53.945Z,18.73
2022-09-09T22:12:23.032Z,18.75
2022-09-09T22:14:53.481Z,18.82
2022-09-09T22:17:24.950Z,18.68
2022-09-09T22:19:55.608Z,18.78
2022-09-09T22:22:24.832Z,18.72
2022-09-09T22:24:54.028Z,18.83
2022-09-09T22:27:23.286Z,18.71
2022-09-09T22:29:52.557Z,18.83
2022-09-09T22:32:22.873Z,18.82
2022-09-09T22:34:52.150Z,18.80
2022-09-09T22:37:23.302Z,18.80
2022-09-09T22:39:52.516Z,18.76
2022-09-09T22:42:22.836Z,18.65
2022-09-09T22:44:52.054Z,18.79
2022-09-09T22:47:21.272Z,18.76
2022-09-09T22:49:50.476Z,18.63
2022-09-09T22:52:21.042Z,18.73
2022-09-09T22:54:50.133Z,18.52
2022-09-09T22:57:19.575Z,18.65
2022-09-09T22:59:50.038Z,18.56
2022-09-09T23:02:20.777Z,18.61
2022-09-09T23:04:50.281Z,18.54
2022-09-09T23:07:21.021Z,18.56
2022-09-09T23:09:51.665Z,18.50
2022-09-09T23:12:22.269Z,18.51
2022-09-09T23:14:52.101Z,18.47
2022-09-09T23:17:21.575Z,18.37
2022-09-09T23:19:53.345Z,18.25
2022-09-09T23:22:23.103Z,18.28
2022-09-09T23:24:54.124Z,18.08
2022-09-09T23:27:23.335Z,18.06
2022-09-09T23:29:52.527Z,17.99
2022-09-09T23:32:22.069Z,17.87
2022-09-09T23:34:51.827Z,17.94
2022-09-09T23:37:21.046Z,17.90
2022-09-09T23:39:50.240Z,17.96
2022-09-09T23:42:20.881Z,17.92
2022-09-09T23:44:50.932Z,17.91
2022-09-09T23:47:20.100Z,17.84
2022-09-09T23:49:50.711Z,17.85
2022-09-09T23:52:19.970Z,17.72
2022-09-09T23:54:49.965Z,17.73
2022-09-09T23:57:21.883Z,17.71
2022-09-09T23:59:51.203Z,17.70
